createdAt,value
2019-06-07T00:00:40.503Z,8.73
2019-06-07T00:03:23.975Z,7.83
2019-06-07T00:05:46.619Z,9.17
2019-06-07T00:08:24.947Z,8.00
2019-06-07T00:10:53.971Z,9.20
2019-06-07T00:13:25.023Z,8.57
2019-06-07T00:15:56.082Z,7.77
2019-06-07T00:18:26.346Z,8.20
2019-06-07T00:20:58.463Z,9.03
2019-06-07T00:23:30.112Z,9.00
2019-06-07T00:26:00.966Z,8.77
2019-06-07T00:28:35.280Z,7.47
2019-06-07T00:31:11.394Z,7.63
2019-06-07T00:33:44.538Z,7.00
2019-06-07T00:36:20.707Z,7.07
2019-06-07T00:38:53.647Z,7.20
2019-06-07T00:41:23.614Z,8.00
2019-06-07T00:44:00.086Z,6.00
2019-06-07T00:46:45.878Z,7.27
2019-06-07T00:49:34.876Z,6.73
2019-06-07T00:51:53.831Z,7.77
2019-06-07T00:54:25.314Z,5.63
2019-06-07T00:57:02.586Z,6.37
2019-06-07T00:59:36.451Z,6.30
2019-06-07T01:02:06.913Z,6.73
2019-06-07T01:04:38.517Z,6.63
2019-06-07T01:07:08.986Z,6.47
2019-06-07T01:09:53.565Z,6.07
2019-06-07T01:12:26.652Z,5.90
2019-06-07T01:15:01.048Z,5.60
2019-06-07T01:17:49.987Z,5.23
2019-06-07T01:20:22.787Z,5.40
2019-06-07T01:22:55.367Z,5.17
2019-06-07T01:25:34.211Z,4.60
2019-06-07T01:28:04.982Z,5.10
2019-06-07T01:30:36.677Z,4.77
2019-06-07T01:33:10.645Z,5.33
2019-06-07T01:35:43.937Z,4.93
2019-06-07T01:38:13.973Z,5.20
2019-06-07T01:40:44.739Z,4.80
2019-06-07T01:43:31.006Z,4.80
2019-06-07T01:46:16.074Z,3.90
2019-06-07T01:48:54.067Z,4.27
2019-06-07T01:51:27.918Z,4.40
2019-06-07T01:54:48.836Z,4.63
2019-06-07T01:56:37.024Z,4.70
2019-06-07T01:59:13.456Z,4.90
2019-06-07T02:01:44.135Z,4.23
2019-06-07T02:04:21.581Z,4.67
2019-06-07T02:06:55.209Z,4.60
2019-06-07T02:09:31.566Z,4.07
2019-06-07T02:11:59.890Z,4.43
2019-06-07T02:14:39.160Z,4.20
2019-06-07T02:17:30.934Z,3.87
2019-06-07T02:20:05.319Z,3.90
2019-06-07T02:22:46.861Z,4.30
2019-06-07T02:25:48.713Z,3.30
2019-06-07T02:28:26.742Z,4.40
2019-06-07T02:30:44.930Z,4.03
2019-06-07T02:33:08.316Z,3.77
2019-06-07T02:35:40.922Z,3.73
2019-06-07T02:38:17.160Z,3.60
2019-06-07T02:40:48.025Z,3.73
2019-06-07T02:43:36.250Z,3.80
2019-06-07T02:46:25.130Z,3.83
2019-06-07T02:48:40.631Z,3.40
2019-06-07T02:51:12.776Z,3.20
2019-06-07T02:53:45.416Z,3.20
2019-06-07T02:58:48.204Z,3.53
2019-06-07T03:01:22.464Z,3.20
2019-06-07T03:03:53.556Z,3.23
2019-06-07T03:06:29.662Z,3.73
2019-06-07T03:08:57.666Z,3.30
2019-06-07T03:11:32.330Z,3.63
2019-06-07T03:14:04.092Z,3.93
2019-06-07T03:16:46.306Z,3.80
2019-06-07T03:19:37.297Z,3.87
2019-06-07T03:22:17.685Z,4.10
2019-06-07T03:31:20.952Z,3.90
2019-06-07T03:33:50.764Z,3.10
2019-06-07T03:36:32.138Z,3.20
2019-06-07T03:39:02.043Z,3.47
2019-06-07T03:41:49.915Z,3.13
2019-06-07T03:44:16.065Z,3.63
2019-06-07T03:46:48.134Z,3.50
2019-06-07T03:49:20.841Z,3.80
2019-06-07T03:51:53.997Z,3.03
2019-06-07T03:54:27.256Z,3.60
2019-06-07T03:56:57.065Z,3.90
2019-06-07T03:59:36.212Z,4.00
2019-06-07T04:02:12.896Z,4.03
2019-06-07T04:04:42.881Z,4.40
2019-06-07T04:07:12.748Z,4.20
2019-06-07T04:09:51.773Z,4.30
2019-06-07T04:12:23.124Z,4.20
2019-06-07T04:14:56.784Z,5.87
2019-06-07T04:17:33.776Z,4.23
2019-06-07T04:20:07.141Z,4.13
2019-06-07T04:22:40.490Z,4.53
2019-06-07T04:25:22.126Z,4.40
2019-06-07T04:27:56.019Z,4.40
2019-06-07T04:31:04.509Z,4.30
2019-06-07T04:33:39.752Z,4.60
2019-06-07T04:36:08.784Z,4.37
2019-06-07T04:38:42.944Z,4.30
2019-06-07T04:41:15.359Z,4.83
2019-06-07T04:43:49.343Z,4.30
2019-06-07T04:46:25.372Z,3.97
2019-06-07T04:48:58.709Z,5.53
2019-06-07T04:51:31.939Z,4.03
2019-06-07T04:54:03.562Z,3.87
2019-06-07T04:56:43.764Z,4.50
2019-06-07T04:59:10.059Z,4.43
2019-06-07T05:01:42.631Z,3.60
2019-06-07T05:04:11.474Z,5.07
2019-06-07T05:06:44.762Z,5.07
2019-06-07T05:09:14.282Z,4.30
2019-06-07T05:11:45.031Z,4.10
2019-06-07T05:14:14.826Z,3.90
2019-06-07T05:16:44.917Z,4.20
2019-06-07T05:19:14.612Z,4.00
2019-06-07T05:22:02.456Z,3.90
2019-06-07T05:24:17.220Z,3.70
2019-06-07T05:26:47.539Z,3.60
2019-06-07T05:29:17.754Z,3.97
2019-06-07T05:31:50.676Z,3.80
2019-06-07T05:34:20.427Z,3.70
2019-06-07T05:37:11.177Z,3.67
2019-06-07T05:39:26.168Z,3.97
2019-06-07T05:42:01.911Z,3.80
2019-06-07T05:44:32.226Z,4.47
2019-06-07T05:47:02.066Z,4.07
2019-06-07T05:49:32.932Z,4.47
2019-06-07T05:52:04.201Z,4.07
2019-06-07T05:54:35.131Z,3.93
2019-06-07T05:57:06.143Z,4.33
2019-06-07T05:59:38.298Z,3.70
2019-06-07T06:02:21.821Z,3.83
2019-06-07T06:04:45.832Z,3.57
2019-06-07T06:07:12.432Z,3.93
2019-06-07T06:09:43.194Z,3.63
2019-06-07T06:12:33.405Z,3.60
2019-06-07T06:14:47.082Z,3.40
2019-06-07T06:17:17.347Z,3.50
2019-06-07T06:19:52.403Z,3.90
2019-06-07T06:22:18.502Z,3.17
2019-06-07T06:25:28.821Z,3.70
2019-06-07T06:28:02.553Z,3.47
2019-06-07T06:29:52.472Z,3.73
2019-06-07T06:34:55.972Z,3.53
2019-06-07T06:37:25.587Z,3.60
2019-06-07T06:39:56.662Z,4.27
2019-06-07T06:42:26.291Z,3.63
2019-06-07T06:44:56.039Z,3.30
2019-06-07T06:47:25.813Z,3.53
2019-06-07T06:49:55.708Z,3.00
2019-06-07T06:52:26.179Z,3.23
2019-06-07T06:55:00.778Z,3.73
2019-06-07T06:57:27.827Z,3.33
2019-06-07T06:59:59.399Z,3.43
2019-06-07T07:02:31.459Z,3.13
2019-06-07T07:05:01.406Z,3.50
2019-06-07T07:07:31.621Z,3.10
2019-06-07T07:10:03.172Z,3.40
2019-06-07T07:12:33.422Z,3.40
2019-06-07T07:15:03.997Z,3.90
2019-06-07T07:17:50.472Z,3.03
2019-06-07T07:20:08.814Z,3.47
2019-06-07T07:22:39.790Z,2.93
2019-06-07T07:25:10.160Z,3.17
2019-06-07T07:27:40.602Z,3.77
2019-06-07T07:30:36.263Z,3.30
2019-06-07T07:32:45.560Z,2.87
2019-06-07T07:35:13.737Z,3.10
2019-06-07T07:37:43.746Z,3.13
2019-06-07T07:40:56.302Z,2.73
2019-06-07T07:42:47.547Z,3.40
2019-06-07T07:45:17.521Z,2.83
2019-06-07T07:48:03.428Z,2.90
2019-06-07T07:50:18.816Z,4.17
2019-06-07T07:52:53.464Z,2.67
2019-06-07T07:55:19.970Z,3.10
2019-06-07T07:57:58.076Z,3.37
2019-06-07T08:00:50.377Z,2.97
2019-06-07T08:02:58.702Z,2.40
2019-06-07T08:05:41.964Z,3.43
2019-06-07T08:08:01.621Z,2.63
2019-06-07T08:10:28.719Z,2.80
2019-06-07T08:13:22.124Z,2.87
2019-06-07T08:15:29.922Z,3.37
2019-06-07T08:18:03.855Z,3.10
2019-06-07T08:20:30.675Z,3.67
2019-06-07T08:23:01.323Z,2.90
2019-06-07T08:25:31.264Z,3.00
2019-06-07T08:28:01.186Z,2.30
2019-06-07T08:30:50.500Z,2.97
2019-06-07T08:33:24.807Z,2.60
2019-06-07T08:38:24.128Z,2.30
2019-06-07T08:40:37.869Z,2.17
2019-06-07T08:43:19.629Z,2.63
2019-06-07T08:45:39.886Z,2.33
2019-06-07T08:48:27.026Z,2.40
2019-06-07T08:50:40.850Z,2.10
2019-06-07T08:53:12.097Z,2.43
2019-06-07T08:55:42.064Z,2.20
2019-06-07T08:58:13.393Z,2.77
2019-06-07T09:00:47.996Z,2.70
2019-06-07T09:03:19.629Z,2.33
2019-06-07T09:05:53.416Z,2.50
2019-06-07T09:08:29.802Z,2.50
2019-06-07T09:10:59.537Z,2.60
2019-06-07T09:13:29.544Z,2.60
2019-06-07T09:16:04.863Z,2.70
2019-06-07T09:18:43.180Z,2.77
2019-06-07T09:21:09.054Z,2.33
2019-06-07T09:23:37.359Z,2.63
2019-06-07T09:26:18.296Z,2.43
2019-06-07T09:28:43.216Z,2.30
2019-06-07T09:31:13.189Z,2.40
2019-06-07T09:33:43.466Z,2.40
2019-06-07T09:36:13.735Z,2.10
2019-06-07T09:38:44.830Z,2.50
2019-06-07T09:41:14.838Z,3.10
2019-06-07T09:44:09.948Z,2.13
2019-06-07T09:46:18.451Z,2.13
2019-06-07T09:51:21.799Z,2.37
2019-06-07T09:53:52.949Z,2.33
2019-06-07T09:56:23.945Z,2.50
2019-06-07T09:58:54.450Z,2.20
2019-06-07T10:01:25.079Z,2.37
2019-06-07T10:03:54.911Z,2.13
2019-06-07T10:06:25.725Z,2.27
2019-06-07T10:11:29.199Z,1.97
2019-06-07T10:14:02.406Z,2.00
2019-06-07T10:16:45.963Z,2.07
2019-06-07T10:19:05.637Z,2.07
2019-06-07T10:21:35.733Z,2.40
2019-06-07T10:24:05.616Z,2.20
2019-06-07T10:26:37.747Z,2.33
2019-06-07T10:29:09.086Z,2.37
2019-06-07T10:31:40.491Z,2.87
2019-06-07T10:34:10.866Z,8.70
2019-06-07T10:36:42.684Z,2.00
2019-06-07T10:39:13.396Z,2.20
2019-06-07T10:41:43.357Z,2.07
2019-06-07T10:44:13.220Z,2.90
2019-06-07T10:46:43.038Z,2.37
2019-06-07T10:49:13.942Z,2.10
2019-06-07T10:51:45.622Z,1.80
2019-06-07T10:54:27.878Z,2.13
2019-06-07T10:56:48.402Z,1.90
2019-06-07T10:59:20.406Z,2.07
2019-06-07T11:01:51.013Z,2.00
2019-06-07T11:04:21.898Z,2.07
2019-06-07T11:06:51.656Z,1.60
2019-06-07T11:09:21.314Z,2.27
2019-06-07T11:11:51.006Z,2.17
2019-06-07T11:14:21.343Z,2.10
2019-06-07T11:16:52.620Z,2.00
2019-06-07T11:19:22.219Z,1.73
2019-06-07T11:21:52.944Z,1.30
2019-06-07T11:24:24.742Z,1.50
2019-06-07T11:26:56.130Z,1.73
2019-06-07T11:29:26.016Z,1.73
2019-06-07T11:31:55.691Z,1.90
2019-06-07T11:34:29.113Z,1.90
2019-06-07T11:36:59.839Z,1.70
2019-06-07T11:39:29.669Z,1.93
2019-06-07T11:42:00.135Z,1.70
2019-06-07T11:44:29.777Z,1.87
2019-06-07T11:47:01.402Z,2.00
2019-06-07T11:49:32.776Z,1.80
2019-06-07T11:52:03.583Z,1.37
2019-06-07T11:54:34.105Z,1.80
2019-06-07T11:57:05.109Z,2.00
2019-06-07T11:59:34.744Z,1.50
2019-06-07T12:02:07.107Z,2.03
2019-06-07T12:04:36.754Z,1.57
2019-06-07T12:07:10.171Z,1.67
2019-06-07T12:09:38.089Z,2.40
2019-06-07T12:12:10.342Z,2.47
2019-06-07T12:14:40.454Z,1.60
2019-06-07T12:17:11.256Z,1.80
2019-06-07T12:19:43.434Z,1.80
2019-06-07T12:22:14.216Z,1.70
2019-06-07T12:24:44.445Z,1.60
2019-06-07T12:27:14.772Z,1.80
2019-06-07T12:29:44.566Z,17.27
2019-06-07T12:32:15.354Z,2.07
2019-06-07T12:34:45.455Z,2.23
2019-06-07T12:37:19.338Z,1.60
2019-06-07T12:39:47.863Z,1.90
2019-06-07T12:42:18.527Z,1.83
2019-06-07T12:44:48.508Z,1.87
2019-06-07T12:47:18.917Z,1.80
2019-06-07T12:49:51.770Z,1.90
2019-06-07T12:52:22.993Z,1.50
2019-06-07T12:54:53.463Z,1.30
2019-06-07T12:57:24.238Z,1.40
2019-06-07T12:59:54.407Z,1.53
2019-06-07T13:02:25.562Z,1.33
2019-06-07T13:04:56.786Z,1.43
2019-06-07T13:07:28.705Z,1.07
2019-06-07T13:09:58.614Z,0.87
2019-06-07T13:12:29.258Z,1.37
2019-06-07T13:15:01.773Z,1.20
2019-06-07T13:17:31.738Z,1.17
2019-06-07T13:20:02.587Z,1.10
2019-06-07T13:22:33.183Z,1.40
2019-06-07T13:25:03.059Z,1.43
2019-06-07T13:27:34.309Z,1.00
2019-06-07T13:30:10.320Z,1.17
2019-06-07T13:32:38.113Z,1.30
2019-06-07T13:35:08.671Z,1.50
2019-06-07T13:37:38.717Z,1.50
2019-06-07T13:40:08.781Z,1.37
2019-06-07T13:42:38.640Z,1.37
2019-06-07T13:45:09.255Z,1.20
2019-06-07T13:47:41.125Z,1.10
2019-06-07T13:50:10.993Z,1.07
2019-06-07T13:52:42.098Z,0.90
2019-06-07T13:55:12.189Z,1.00
2019-06-07T13:57:44.135Z,1.00
2019-06-07T14:00:14.995Z,1.00
2019-06-07T14:02:44.595Z,1.10
2019-06-07T14:05:15.849Z,1.17
2019-06-07T14:07:46.682Z,0.90
2019-06-07T14:10:17.147Z,1.03
2019-06-07T14:12:49.751Z,1.20
2019-06-07T14:15:20.472Z,1.40
2019-06-07T14:17:52.121Z,1.20
2019-06-07T14:20:26.783Z,1.10
2019-06-07T14:22:58.945Z,1.20
2019-06-07T14:25:31.963Z,1.07
2019-06-07T14:28:09.370Z,0.97
2019-06-07T14:30:35.998Z,1.10
2019-06-07T14:33:06.354Z,1.10
2019-06-07T14:35:42.530Z,1.10
2019-06-07T14:38:13.260Z,0.93
2019-06-07T14:40:45.915Z,1.00
2019-06-07T14:43:27.665Z,1.27
2019-06-07T14:46:00.816Z,1.03
2019-06-07T14:48:30.564Z,1.53
2019-06-07T14:51:03.812Z,1.30
2019-06-07T14:53:39.407Z,1.20
2019-06-07T14:56:10.263Z,1.30
2019-06-07T14:58:43.493Z,1.17
2019-06-07T15:01:22.684Z,1.20
2019-06-07T15:03:53.124Z,1.23
2019-06-07T15:06:24.271Z,1.20
2019-06-07T15:09:01.674Z,1.20
2019-06-07T15:11:43.999Z,1.30
2019-06-07T15:14:16.882Z,1.00
2019-06-07T15:16:48.267Z,1.20
2019-06-07T15:19:24.160Z,1.00
2019-06-07T15:21:56.596Z,1.20
2019-06-07T15:24:26.181Z,1.00
2019-06-07T15:26:55.942Z,0.90
2019-06-07T15:29:25.845Z,0.97
2019-06-07T15:31:55.868Z,1.20
2019-06-07T15:34:25.779Z,1.03
2019-06-07T15:36:56.817Z,0.90
2019-06-07T15:39:28.408Z,2.27
2019-06-07T15:41:58.467Z,0.80
2019-06-07T15:44:29.097Z,1.10
2019-06-07T15:46:58.907Z,0.90
2019-06-07T15:49:30.300Z,1.10
2019-06-07T15:52:00.234Z,0.90
2019-06-07T15:54:30.242Z,0.80
2019-06-07T15:57:01.338Z,1.00
2019-06-07T15:59:31.116Z,1.00
2019-06-07T16:02:00.729Z,0.80
2019-06-07T16:04:31.346Z,1.30
2019-06-07T16:07:04.595Z,0.90
2019-06-07T16:09:34.389Z,1.80
2019-06-07T16:12:04.684Z,1.00
2019-06-07T16:14:35.118Z,1.50
2019-06-07T16:17:05.023Z,1.30
2019-06-07T16:19:39.304Z,1.70
2019-06-07T16:22:06.419Z,1.10
2019-06-07T16:24:37.690Z,1.50
2019-06-07T16:27:07.749Z,1.27
2019-06-07T16:29:38.646Z,1.27
2019-06-07T16:32:08.703Z,1.40
2019-06-07T16:34:39.884Z,1.30
2019-06-07T16:37:11.103Z,1.70
2019-06-07T16:39:40.855Z,1.43
2019-06-07T16:42:10.761Z,1.63
2019-06-07T16:44:40.886Z,1.60
2019-06-07T16:47:10.766Z,1.80
2019-06-07T16:49:42.956Z,1.30
2019-06-07T16:52:13.158Z,1.40
2019-06-07T16:54:43.600Z,1.60
2019-06-07T16:57:14.322Z,1.40
2019-06-07T16:59:47.775Z,1.30
2019-06-07T17:02:15.748Z,1.13
2019-06-07T17:04:45.801Z,1.87
2019-06-07T17:07:15.630Z,1.93
2019-06-07T17:09:47.324Z,2.00
2019-06-07T17:12:17.436Z,1.60
2019-06-07T17:14:48.823Z,1.40
2019-06-07T17:17:18.713Z,2.53
2019-06-07T17:19:49.283Z,1.30
2019-06-07T17:22:19.080Z,1.60
2019-06-07T17:24:49.909Z,1.60
2019-06-07T17:27:19.651Z,1.40
2019-06-07T17:29:51.580Z,1.33
2019-06-07T17:32:21.854Z,1.50
2019-06-07T17:34:52.549Z,1.20
2019-06-07T17:37:25.213Z,1.33
2019-06-07T17:39:55.270Z,1.23
2019-06-07T17:42:25.101Z,1.70
2019-06-07T17:44:57.890Z,1.40
2019-06-07T17:47:29.235Z,1.70
2019-06-07T17:49:59.909Z,1.70
2019-06-07T17:52:29.685Z,1.63
2019-06-07T17:54:59.969Z,1.73
2019-06-07T17:57:30.904Z,1.60
2019-06-07T18:00:27.106Z,1.47
2019-06-07T18:02:32.267Z,1.50
2019-06-07T18:05:02.813Z,1.20
2019-06-07T18:07:33.866Z,1.17
2019-06-07T18:10:05.653Z,1.43
2019-06-07T18:12:35.490Z,1.77
2019-06-07T18:15:16.131Z,2.00
2019-06-07T18:17:48.548Z,2.13
2019-06-07T18:20:27.412Z,1.90
2019-06-07T18:23:00.059Z,1.80
2019-06-07T18:25:30.462Z,1.57
2019-06-07T18:28:04.668Z,1.90
2019-06-07T18:30:36.914Z,1.70
2019-06-07T18:33:10.523Z,1.93
2019-06-07T18:35:43.281Z,1.40
2019-06-07T18:38:16.148Z,1.70
2019-06-07T18:40:47.151Z,2.00
2019-06-07T18:43:18.222Z,2.17
2019-06-07T18:45:51.482Z,2.00
2019-06-07T18:48:25.246Z,2.10
2019-06-07T18:50:59.063Z,1.50
2019-06-07T18:53:37.110Z,1.80
2019-06-07T18:56:09.421Z,2.43
2019-06-07T18:58:40.342Z,2.47
2019-06-07T19:01:13.142Z,1.63
2019-06-07T19:03:42.758Z,1.67
2019-06-07T19:06:13.010Z,2.10
2019-06-07T19:08:48.435Z,1.73
2019-06-07T19:11:21.762Z,2.00
2019-06-07T19:13:52.988Z,2.00
2019-06-07T19:16:25.960Z,2.27
2019-06-07T19:19:03.379Z,2.27
2019-06-07T19:21:35.924Z,5.90
2019-06-07T19:24:06.393Z,4.33
2019-06-07T19:26:37.700Z,2.10
2019-06-07T19:29:07.728Z,2.03
2019-06-07T19:31:38.226Z,2.07
2019-06-07T19:34:08.091Z,1.80
2019-06-07T19:36:51.510Z,1.50
2019-06-07T19:39:24.001Z,1.90
2019-06-07T19:41:54.289Z,2.03
2019-06-07T19:44:25.774Z,1.87
2019-06-07T19:47:00.618Z,6.70
2019-06-07T19:49:30.463Z,2.63
2019-06-07T19:52:07.725Z,1.63
2019-06-07T19:54:41.128Z,2.40
2019-06-07T19:57:12.480Z,2.30
2019-06-07T19:59:45.194Z,2.27
2019-06-07T20:02:20.128Z,1.40
2019-06-07T20:04:51.172Z,2.00
2019-06-07T20:07:21.038Z,1.70
2019-06-07T20:09:52.400Z,1.60
2019-06-07T20:12:24.089Z,1.67
2019-06-07T20:15:17.517Z,2.00
2019-06-07T20:17:31.137Z,2.57
2019-06-07T20:20:02.845Z,2.17
2019-06-07T20:22:32.436Z,2.33
2019-06-07T20:25:03.176Z,1.70
2019-06-07T20:27:33.271Z,3.43
2019-06-07T20:30:04.400Z,3.17
2019-06-07T20:32:34.846Z,2.97
2019-06-07T20:35:06.086Z,6.27
2019-06-07T20:37:37.675Z,2.63
2019-06-07T20:40:22.765Z,2.27
2019-06-07T20:42:43.825Z,1.87
2019-06-07T20:45:15.121Z,1.37
2019-06-07T20:47:47.344Z,1.70
2019-06-07T20:50:17.407Z,1.60
2019-06-07T20:52:48.245Z,2.70
2019-06-07T20:55:19.263Z,2.00
2019-06-07T20:57:50.630Z,1.77
2019-06-07T21:00:22.075Z,2.27
2019-06-07T21:02:54.664Z,2.00
2019-06-07T21:05:24.409Z,2.10
2019-06-07T21:07:54.234Z,2.30
2019-06-07T21:10:26.500Z,2.10
2019-06-07T21:12:59.697Z,2.40
2019-06-07T21:15:31.167Z,2.20
2019-06-07T21:18:08.667Z,2.33
2019-06-07T21:20:36.643Z,2.13
2019-06-07T21:23:07.094Z,1.90
2019-06-07T21:25:41.504Z,1.87
2019-06-07T21:28:14.274Z,1.90
2019-06-07T21:30:44.787Z,1.70
2019-06-07T21:33:15.491Z,1.90
2019-06-07T21:35:45.102Z,1.93
2019-06-07T21:38:20.768Z,2.10
2019-06-07T21:40:57.654Z,1.90
2019-06-07T21:43:28.579Z,1.97
2019-06-07T21:46:05.443Z,2.10
2019-06-07T21:48:38.709Z,2.00
2019-06-07T21:51:12.719Z,2.50
2019-06-07T21:53:45.791Z,2.13
2019-06-07T21:56:17.335Z,2.90
2019-06-07T21:58:47.870Z,2.03
2019-06-07T22:01:37.014Z,1.90
2019-06-07T22:04:09.657Z,2.17
2019-06-07T22:06:44.462Z,2.33
2019-06-07T22:09:21.907Z,2.27
2019-06-07T22:11:55.614Z,2.30
2019-06-07T22:14:32.572Z,2.47
2019-06-07T22:17:04.324Z,3.57
2019-06-07T22:19:54.704Z,3.50
2019-06-07T22:22:32.566Z,3.60
2019-06-07T22:25:03.360Z,3.97
2019-06-07T22:27:36.806Z,4.20
2019-06-07T22:30:12.605Z,4.50
2019-06-07T22:32:45.666Z,13.47
2019-06-07T22:35:17.615Z,11.80
2019-06-07T22:37:52.473Z,11.33
2019-06-07T22:40:24.184Z,9.27
2019-06-07T22:42:54.533Z,8.00
2019-06-07T22:45:34.149Z,5.20
2019-06-07T22:48:05.133Z,5.73
2019-06-07T22:50:36.518Z,4.67
2019-06-07T22:53:07.360Z,5.13
2019-06-07T22:55:43.779Z,2.63
2019-06-07T22:58:18.988Z,2.73
2019-06-07T23:00:50.746Z,2.73
2019-06-07T23:03:23.437Z,2.30
2019-06-07T23:05:53.721Z,2.77
2019-06-07T23:08:24.694Z,2.90
2019-06-07T23:10:56.727Z,2.60
2019-06-07T23:13:29.633Z,3.00
2019-06-07T23:16:01.633Z,2.80
2019-06-07T23:18:32.280Z,2.97
2019-06-07T23:21:02.053Z,2.90
2019-06-07T23:23:32.617Z,2.43
2019-06-07T23:26:02.882Z,2.53
2019-06-07T23:28:33.191Z,2.83
2019-06-07T23:31:04.902Z,2.93
2019-06-07T23:33:35.873Z,3.17
2019-06-07T23:36:07.814Z,3.13
2019-06-07T23:38:43.199Z,2.60
2019-06-07T23:41:15.603Z,2.60
2019-06-07T23:43:50.317Z,2.70
2019-06-07T23:46:21.727Z,3.17
2019-06-07T23:48:52.612Z,2.47
2019-06-07T23:51:24.665Z,2.57
2019-06-07T23:53:57.051Z,2.30
2019-06-07T23:56:29.669Z,2.17
2019-06-07T23:59:01.933Z,2.23
